Time;durP1;ratioP1;P1;durP2;ratioP2;P2;SDS_P1;SDS_P2;PMS_P1;PMS_P2;Temp;Humidity;BMP_temperature;BMP_pressure;BME280_temperature;BME280_humidity;BME280_pressure;Samples;Min_cycle;Max_cycle;Signal;HPM_P1;HPM_P2
2023/07/15 00:00:23;;;;;;;;;;;;;;;-140.72;100.00;52463.91;5081764;28;20363;-74
2023/07/15 00:02:50;;;;;;;;;;;;;;;-140.72;100.00;52451.72;5105898;28;19998;-69
2023/07/15 00:05:18;;;;;;;;;;;;;;;-140.72;100.00;52512.59;5089751;28;19916;-71
2023/07/15 00:07:43;;;;;;;;;;;;;;;-140.72;100.00;52467.97;5092646;28;19916;-70
2023/07/15 00:10:09;;;;;;;;;;;;;;;-140.72;100.00;52476.09;5093613;28;19966;-70
2023/07/15 00:12:34;;;;;;;;;;;;;;;-140.72;100.00;52472.03;5090387;28;19916;-70
2023/07/15 00:14:59;;;;;;;;;;;;;;;-140.72;100.00;52423.31;5077909;28;20219;-71
2023/07/15 00:17:24;;;;;;;;;;;;;;;-140.72;97.43;52439.56;5079820;28;19943;-71
2023/07/15 00:19:50;;;;;;;;;;;;;;;-140.72;87.70;52463.91;5083033;28;19917;-70
2023/07/15 00:22:15;;;;;;;;;;;;;;;-140.72;79.13;52443.63;5073924;28;20350;-70
2023/07/15 00:24:41;;;;;;;;;;;;;;;-140.72;68.40;52451.72;5093083;28;19920;-71
2023/07/15 00:27:08;;;;;;;;;;;;;;;-140.72;68.47;52451.72;5084866;28;19927;-72
2023/07/15 00:29:33;;;;;;;;;;;;;;;-140.72;68.31;52463.91;5098615;28;19916;-71
2023/07/15 00:32:01;;;;;;;;;;;;;;;-140.72;61.34;52439.56;5078914;28;19927;-71
2023/07/15 00:34:27;;;;;;;;;;;;;;;-140.72;45.72;52480.16;5092652;28;20011;-71
2023/07/15 00:36:52;;;;;;;;;;;;;;;-140.72;44.38;52488.25;5088681;28;19931;-71
2023/07/15 00:39:17;;;;;;;;;;;;;;;-140.72;45.32;52467.97;5060673;28;19960;-71
2023/07/15 00:41:42;;;;;;;;;;;;;;;-140.72;25.61;52455.78;5080192;28;20369;-71
2023/07/15 00:44:14;;;;;;;;;;;;;;;-140.72;8.76;52484.19;5080778;28;20428;-71
2023/07/15 00:46:57;;;;;;;;;;;;;;;-140.72;2.13;52467.97;5086948;28;19920;-70
2023/07/15 00:49:23;;;;;;;;;;;;;;;-140.72;0.00;52451.72;5085065;28;19926;-70
2023/07/15 00:51:57;;;;;;;;;;;;;;;-140.72;0.00;52455.78;5085491;28;20362;-71
2023/07/15 00:54:22;;;;;;;;;;;;;;;-140.72;0.00;52433.47;5088710;28;20365;-71
2023/07/15 00:56:48;;;;;;;;;;;;;;;-140.72;0.00;52461.88;5083650;28;19973;-73
2023/07/15 00:59:14;;;;;;;;;;;;;;;-140.72;0.00;52459.84;5080142;28;19931;-70
2023/07/15 01:01:40;;;;;;;;;;;;;;;-140.72;0.00;52443.63;5082465;28;19916;-70
2023/07/15 01:04:05;;;;;;;;;;;;;;;-140.72;0.00;52453.75;5093216;28;19916;-70
2023/07/15 01:06:33;;;;;;;;;;;;;;;-140.72;0.00;52423.31;5076689;28;19923;-70
2023/07/15 01:08:59;;;;;;;;;;;;;;;-140.72;0.00;52455.78;5089851;28;19960;-70
2023/07/15 01:11:25;;;;;;;;;;;;;;;-140.72;0.00;52431.44;5077183;28;20265;-69
2023/07/15 01:13:50;;;;;;;;;;;;;;;-140.72;0.00;52461.88;5087271;28;20338;-70
2023/07/15 01:16:16;;;;;;;;;;;;;;;-140.72;0.00;52461.88;5078787;28;20071;-71
2023/07/15 01:18:42;;;;;;;;;;;;;;;-140.72;0.00;52453.75;5093325;28;19916;-71
2023/07/15 01:21:08;;;;;;;;;;;;;;;-140.72;0.00;52382.75;5089973;28;19920;-70
2023/07/15 01:23:33;;;;;;;;;;;;;;;-140.72;2.77;52459.84;5070739;28;20286;-70
2023/07/15 01:25:59;;;;;;;;;;;;;;;-140.72;9.56;52480.16;5083093;28;19916;-70
2023/07/15 01:28:24;;;;;;;;;;;;;;;-140.72;21.32;52457.81;5092563;28;19973;-70
2023/07/15 01:30:50;;;;;;;;;;;;;;;-140.72;37.73;52459.84;5079615;28;20371;-70
2023/07/15 01:33:15;;;;;;;;;;;;;;;-140.72;50.62;52482.16;5092264;28;20254;-70
2023/07/15 01:35:47;;;;;;;;;;;;;;;-140.72;60.59;52482.16;5078618;28;19943;-71
2023/07/15 01:38:13;;;;;;;;;;;;;;;-140.72;76.95;52484.19;5075680;28;19927;-71
2023/07/15 01:40:38;;;;;;;;;;;;;;;-140.72;86.49;52512.59;5085121;28;19973;-71
2023/07/15 01:43:04;;;;;;;;;;;;;;;-140.72;95.96;52451.72;5091173;28;20341;-71
2023/07/15 01:45:30;;;;;;;;;;;;;;;-140.72;100.00;52530.88;5089421;28;20382;-71
2023/07/15 01:47:55;;;;;;;;;;;;;;;-140.72;100.00;52506.53;5089911;28;19955;-72
2023/07/15 01:50:21;;;;;;;;;;;;;;;-140.72;100.00;52516.66;5091564;28;19917;-71
2023/07/15 01:52:46;;;;;;;;;;;;;;;-140.72;100.00;52488.25;5085141;28;19952;-71
2023/07/15 01:55:11;;;;;;;;;;;;;;;-140.72;100.00;52484.19;5078840;28;19921;-71
2023/07/15 01:57:36;;;;;;;;;;;;;;;-140.72;100.00;52447.69;5078507;28;19927;-71
2023/07/15 02:00:05;;;;;;;;;;;;;;;-140.72;100.00;52474.06;5080820;28;19927;-71
2023/07/15 02:02:30;;;;;;;;;;;;;;;-140.72;100.00;52472.03;5077761;28;20438;-71
2023/07/15 02:04:55;;;;;;;;;;;;;;;-140.72;100.00;52467.97;5083834;28;19959;-72
2023/07/15 02:07:20;;;;;;;;;;;;;;;-140.72;100.00;52492.31;5088382;28;19961;-72
2023/07/15 02:09:46;;;;;;;;;;;;;;;-140.72;100.00;52449.72;5081426;28;19917;-71
2023/07/15 02:12:11;;;;;;;;;;;;;;;-140.72;100.00;52435.50;5079362;28;19928;-70
2023/07/15 02:14:37;;;;;;;;;;;;;;;-140.72;100.00;52455.78;5089104;28;19920;-71
2023/07/15 02:17:03;;;;;;;;;;;;;;;-140.72;100.00;52476.09;5080396;28;19938;-70
2023/07/15 02:19:30;;;;;;;;;;;;;;;-140.72;100.00;52459.84;5088522;28;19920;-70
2023/07/15 02:21:56;;;;;;;;;;;;;;;-140.72;100.00;52419.28;5092451;28;19920;-71
2023/07/15 02:24:21;;;;;;;;;;;;;;;-140.72;100.00;52417.25;5094248;28;20285;-70
2023/07/15 02:26:46;;;;;;;;;;;;;;;-140.72;100.00;52465.94;5084755;28;19920;-71
2023/07/15 02:29:13;;;;;;;;;;;;;;;-140.72;100.00;52455.78;5092938;28;19920;-70
2023/07/15 02:31:38;;;;;;;;;;;;;;;-140.72;100.00;52474.06;5092050;28;19943;-71
2023/07/15 02:34:04;;;;;;;;;;;;;;;-140.72;100.00;52451.72;5094614;28;19916;-70
2023/07/15 02:36:29;;;;;;;;;;;;;;;-140.72;100.00;52461.88;5080561;28;19916;-70
2023/07/15 02:38:54;;;;;;;;;;;;;;;-140.72;100.00;52435.50;5088521;28;19916;-70
2023/07/15 02:41:20;;;;;;;;;;;;;;;-140.72;100.00;52437.53;5076064;28;20011;-70
2023/07/15 02:43:45;;;;;;;;;;;;;;;-140.72;100.00;52445.66;5095445;28;20027;-71
2023/07/15 02:46:10;;;;;;;;;;;;;;;-140.72;100.00;52443.63;5091384;28;20298;-71
2023/07/15 02:48:35;;;;;;;;;;;;;;;-140.72;100.00;52447.69;5087424;28;19920;-71
2023/07/15 02:51:01;;;;;;;;;;;;;;;-140.72;100.00;52435.50;5088725;28;19927;-70
2023/07/15 02:53:27;;;;;;;;;;;;;;;-140.72;100.00;52480.16;5094778;28;19963;-71
2023/07/15 02:55:52;;;;;;;;;;;;;;;-140.72;100.00;52451.72;5094334;28;19916;-70
2023/07/15 02:58:18;;;;;;;;;;;;;;;-140.72;100.00;52476.09;5102830;28;19916;-69
2023/07/15 03:00:44;;;;;;;;;;;;;;;-140.72;100.00;52478.13;5089817;28;20062;-70
2023/07/15 03:03:10;;;;;;;;;;;;;;;-140.72;100.00;52500.44;5074916;28;19958;-70
2023/07/15 03:05:36;;;;;;;;;;;;;;;-140.72;100.00;52472.03;5089612;28;20227;-71
2023/07/15 03:08:01;;;;;;;;;;;;;;;-140.72;100.00;52476.09;5084570;28;20109;-71
2023/07/15 03:10:26;;;;;;;;;;;;;;;-140.72;100.00;52467.97;5084371;28;20377;-71
2023/07/15 03:12:51;;;;;;;;;;;;;;;-140.72;100.00;52482.16;5095249;28;19923;-71
2023/07/15 03:15:17;;;;;;;;;;;;;;;-140.72;100.00;52486.22;5092097;28;19916;-71
2023/07/15 03:17:43;;;;;;;;;;;;;;;-140.72;100.00;52504.50;5081307;28;19916;-72
2023/07/15 03:20:19;;;;;;;;;;;;;;;-140.72;100.00;52467.97;5091755;28;19916;-71
2023/07/15 03:22:48;;;;;;;;;;;;;;;-140.72;100.00;52484.19;5085507;28;19920;-71
2023/07/15 03:25:14;;;;;;;;;;;;;;;-140.72;100.00;52504.50;5089508;28;20026;-72
2023/07/15 03:27:39;;;;;;;;;;;;;;;-140.72;100.00;52508.56;5081624;28;20390;-72
2023/07/15 03:30:07;;;;;;;;;;;;;;;-140.72;100.00;52512.59;5088562;28;20463;-72
2023/07/15 03:32:33;;;;;;;;;;;;;;;-140.72;100.00;52508.56;5077225;28;19916;-71
2023/07/15 03:34:58;;;;;;;;;;;;;;;-140.72;100.00;52508.56;5081338;28;19974;-70
2023/07/15 03:37:25;;;;;;;;;;;;;;;-140.72;100.00;52480.16;5107957;27;19931;-69
2023/07/15 03:39:52;;;;;;;;;;;;;;;-140.72;100.00;52478.13;5080283;28;20026;-70
2023/07/15 03:42:17;;;;;;;;;;;;;;;-140.72;100.00;52494.34;5092053;28;19944;-71
2023/07/15 03:44:42;;;;;;;;;;;;;;;-140.72;100.00;52498.41;5094936;28;19998;-70
2023/07/15 03:47:07;;;;;;;;;;;;;;;-140.72;100.00;52474.06;5111537;28;19916;-70
2023/07/15 03:49:33;;;;;;;;;;;;;;;-140.72;100.00;52476.09;5082213;28;19916;-71
2023/07/15 03:51:58;;;;;;;;;;;;;;;-140.72;100.00;52502.47;5082758;28;20295;-71
2023/07/15 03:54:24;;;;;;;;;;;;;;;-140.72;100.00;52510.59;5060848;28;20000;-71
2023/07/15 03:56:51;;;;;;;;;;;;;;;-140.72;100.00;52472.03;5063299;28;19947;-71
2023/07/15 03:59:16;;;;;;;;;;;;;;;-140.72;100.00;52496.38;5080186;28;19923;-71
2023/07/15 04:01:42;;;;;;;;;;;;;;;-140.72;100.00;52465.94;5092949;28;19920;-72
2023/07/15 04:04:09;;;;;;;;;;;;;;;-140.72;100.00;52480.16;5075254;28;19934;-72
2023/07/15 04:06:34;;;;;;;;;;;;;;;-140.72;100.00;52470.00;5093871;28;20041;-72
2023/07/15 04:09:00;;;;;;;;;;;;;;;-140.72;100.00;52490.28;5093306;28;20381;-73
2023/07/15 04:11:25;;;;;;;;;;;;;;;-140.72;100.00;52492.31;5085904;28;19927;-71
2023/07/15 04:13:51;;;;;;;;;;;;;;;-140.72;100.00;52476.09;5097085;28;20341;-71
2023/07/15 04:16:16;;;;;;;;;;;;;;;-140.72;100.00;52455.78;5088903;28;20369;-71
2023/07/15 04:18:42;;;;;;;;;;;;;;;-140.72;100.00;52457.81;5081314;28;19966;-70
2023/07/15 04:21:07;;;;;;;;;;;;;;;-140.72;100.00;52476.09;5101522;28;19926;-71
2023/07/15 04:23:35;;;;;;;;;;;;;;;-140.72;100.00;52504.50;5082278;28;20007;-71
2023/07/15 04:26:00;;;;;;;;;;;;;;;-140.72;100.00;52427.38;5091123;28;19920;-73
2023/07/15 04:28:26;;;;;;;;;;;;;;;-140.72;100.00;52508.56;5073630;28;19943;-74
2023/07/15 04:30:51;;;;;;;;;;;;;;;-140.72;100.00;52492.31;5082524;28;20384;-74
2023/07/15 04:33:18;;;;;;;;;;;;;;;-140.72;100.00;52482.16;5084334;28;19921;-74
2023/07/15 04:35:44;;;;;;;;;;;;;;;-140.72;100.00;52449.72;5088711;28;19920;-75
2023/07/15 04:38:10;;;;;;;;;;;;;;;-140.72;100.00;52455.78;5077695;28;19942;-71
2023/07/15 04:40:35;;;;;;;;;;;;;;;-140.72;100.00;52443.63;5093407;28;19917;-71
2023/07/15 04:43:00;;;;;;;;;;;;;;;-140.72;100.00;52451.72;5082429;28;19978;-71
2023/07/15 04:45:26;;;;;;;;;;;;;;;-140.72;100.00;52459.84;5079743;28;20033;-72
2023/07/15 04:47:51;;;;;;;;;;;;;;;-140.72;100.00;52455.78;5083884;28;19942;-74
2023/07/15 04:50:16;;;;;;;;;;;;;;;-140.72;100.00;52484.19;5093396;28;19960;-73
2023/07/15 04:52:42;;;;;;;;;;;;;;;-140.72;100.00;52449.72;5091569;28;20369;-73
2023/07/15 04:55:09;;;;;;;;;;;;;;;-140.72;100.00;52476.09;5084483;28;19919;-72
2023/07/15 04:57:34;;;;;;;;;;;;;;;-140.72;100.00;52463.91;5064792;28;20255;-73
2023/07/15 04:59:59;;;;;;;;;;;;;;;-140.72;100.00;52451.72;5088563;28;19931;-73
2023/07/15 05:02:24;;;;;;;;;;;;;;;-140.72;100.00;52451.72;5083338;28;19928;-74
2023/07/15 05:04:50;;;;;;;;;;;;;;;-140.72;100.00;52427.38;5088473;28;20001;-73
2023/07/15 05:07:15;;;;;;;;;;;;;;;-140.72;100.00;52455.78;5087927;28;19920;-74
2023/07/15 05:09:40;;;;;;;;;;;;;;;-140.72;100.00;52453.75;5080868;28;19920;-76
2023/07/15 05:12:06;;;;;;;;;;;;;;;-140.72;100.00;52431.44;5086649;28;19917;-75
2023/07/15 05:14:32;;;;;;;;;;;;;;;-140.72;100.00;52476.09;5085196;28;19950;-74
2023/07/15 05:16:58;;;;;;;;;;;;;;;-140.72;100.00;52478.13;5088537;28;19965;-75
2023/07/15 05:19:24;;;;;;;;;;;;;;;-140.72;100.00;52455.78;5088674;28;19996;-74
2023/07/15 05:21:49;;;;;;;;;;;;;;;-140.72;100.00;52459.84;5086016;28;20809;-73
2023/07/15 05:24:14;;;;;;;;;;;;;;;-140.72;100.00;52457.81;5083136;28;19970;-74
2023/07/15 05:26:39;;;;;;;;;;;;;;;-140.72;100.00;52451.72;5092344;28;19962;-72
2023/07/15 05:29:07;;;;;;;;;;;;;;;-140.72;100.00;52427.38;5097085;28;19920;-74
2023/07/15 05:31:32;;;;;;;;;;;;;;;-140.72;100.00;52463.91;5095561;28;19964;-74
2023/07/15 05:33:58;;;;;;;;;;;;;;;-140.72;100.00;52457.81;5084616;28;19924;-75
2023/07/15 05:36:23;;;;;;;;;;;;;;;-140.72;100.00;52480.16;5069821;28;20015;-74
2023/07/15 05:38:48;;;;;;;;;;;;;;;-140.72;100.00;52453.75;5097301;28;20052;-74
2023/07/15 05:41:13;;;;;;;;;;;;;;;-140.72;100.00;52435.50;5078119;28;19916;-75
2023/07/15 05:43:39;;;;;;;;;;;;;;;-140.72;100.00;52455.78;5083256;28;19920;-71
2023/07/15 05:46:06;;;;;;;;;;;;;;;-140.72;100.00;52451.72;5086324;28;19920;-77
2023/07/15 05:48:31;;;;;;;;;;;;;;;-140.72;100.00;52476.09;5095949;28;19920;-77
2023/07/15 05:51:04;;;;;;;;;;;;;;;-140.72;100.00;52476.09;5079982;28;20374;-76
2023/07/15 05:53:31;;;;;;;;;;;;;;;-140.72;100.00;52459.84;5079149;28;19920;-77
2023/07/15 05:55:56;;;;;;;;;;;;;;;-140.72;100.00;52425.34;5096504;28;19916;-77
2023/07/15 05:58:21;;;;;;;;;;;;;;;-140.72;100.00;52465.94;5070735;28;19993;-77
2023/07/15 06:00:46;;;;;;;;;;;;;;;-140.72;100.00;52490.28;5076110;28;20443;-77
2023/07/15 06:03:12;;;;;;;;;;;;;;;-140.72;100.00;52463.91;5071364;28;20354;-77
2023/07/15 06:05:37;;;;;;;;;;;;;;;-140.72;100.00;52439.56;5073187;28;20350;-77
2023/07/15 06:08:02;;;;;;;;;;;;;;;-140.72;100.00;52447.69;5094761;28;19929;-77
2023/07/15 06:10:28;;;;;;;;;;;;;;;-140.72;100.00;52401.00;5096079;28;19935;-77
2023/07/15 06:12:53;;;;;;;;;;;;;;;-140.72;100.00;52427.38;5096861;28;19917;-77
2023/07/15 06:15:18;;;;;;;;;;;;;;;-140.72;100.00;52417.25;5084144;28;19928;-77
2023/07/15 06:17:43;;;;;;;;;;;;;;;-140.72;100.00;52461.88;5079138;28;19987;-77
2023/07/15 06:20:09;;;;;;;;;;;;;;;-140.72;100.00;52401.00;5076885;28;19928;-78
2023/07/15 06:22:34;;;;;;;;;;;;;;;-140.72;100.00;52453.75;5074124;28;19947;-78
2023/07/15 06:24:59;;;;;;;;;;;;;;;-140.72;100.00;52419.28;5098155;28;19920;-78
2023/07/15 06:27:25;;;;;;;;;;;;;;;-140.72;100.00;52423.31;5087967;28;20354;-78
2023/07/15 06:29:50;;;;;;;;;;;;;;;-140.72;100.00;52443.63;5097007;28;19939;-78
2023/07/15 06:32:15;;;;;;;;;;;;;;;-140.72;100.00;52407.09;5093512;28;19916;-78
2023/07/15 06:34:40;;;;;;;;;;;;;;;-140.72;44.65;52445.66;5085380;28;19916;-78
2023/07/15 06:37:06;;;;;;;;;;;;;;;-140.72;12.26;52411.16;5099999;28;20048;-78
2023/07/15 06:39:31;;;;;;;;;;;;;;;-140.72;1.17;52415.22;5100842;28;19920;-78
2023/07/15 06:41:57;;;;;;;;;;;;;;;-140.72;0.73;52435.50;5061459;28;19970;-78
2023/07/15 06:44:24;;;;;;;;;;;;;;;-140.72;0.00;52411.16;5094359;28;19916;-78
2023/07/15 06:46:49;;;;;;;;;;;;;;;-140.72;0.00;52423.31;5092665;28;19924;-77
2023/07/15 06:49:14;;;;;;;;;;;;;;;-140.72;0.00;52396.94;5086985;28;20009;-77
2023/07/15 06:51:39;;;;;;;;;;;;;;;-140.72;0.00;52405.06;5079150;28;19943;-77
2023/07/15 06:54:05;;;;;;;;;;;;;;;-140.72;0.00;52431.44;5088386;28;19985;-79
2023/07/15 06:56:30;;;;;;;;;;;;;;;-140.72;0.00;52405.06;5078473;28;20374;-78
2023/07/15 06:58:55;;;;;;;;;;;;;;;-140.72;0.00;52407.09;5072818;28;20020;-77
2023/07/15 07:01:21;;;;;;;;;;;;;;;-140.72;0.00;52372.59;5079638;28;19924;-77
2023/07/15 07:03:46;;;;;;;;;;;;;;;-140.72;0.00;52384.78;5079447;28;19949;-78
2023/07/15 07:06:11;;;;;;;;;;;;;;;-140.72;0.00;52360.44;5085545;28;19923;-78
2023/07/15 07:08:37;;;;;;;;;;;;;;;-140.72;0.00;52382.75;5097965;28;20271;-78
2023/07/15 07:11:02;;;;;;;;;;;;;;;-140.72;0.00;52360.44;5089616;28;19941;-79
2023/07/15 07:13:28;;;;;;;;;;;;;;;-140.72;0.00;52390.84;5085464;28;20308;-78
2023/07/15 07:15:57;;;;;;;;;;;;;;;-140.72;0.00;52366.50;5100980;28;19922;-77
2023/07/15 07:18:23;;;;;;;;;;;;;;;-140.72;0.00;52366.50;5063733;28;20013;-77
2023/07/15 07:20:48;;;;;;;;;;;;;;;-140.72;0.00;52378.69;5088429;28;19953;-78
2023/07/15 07:23:13;;;;;;;;;;;;;;;-140.72;0.00;52332.03;5076923;28;19974;-77
2023/07/15 07:25:40;;;;;;;;;;;;;;;-140.72;0.00;52332.03;5077986;28;20447;-78
2023/07/15 07:28:05;;;;;;;;;;;;;;;-140.72;0.00;52354.34;5069831;28;20007;-77
2023/07/15 07:30:30;;;;;;;;;;;;;;;-140.72;0.00;52340.13;5064462;28;20376;-79
2023/07/15 07:32:56;;;;;;;;;;;;;;;-140.72;0.00;52342.16;5084150;28;19917;-78
2023/07/15 07:35:21;;;;;;;;;;;;;;;-140.72;0.00;52380.72;5102155;28;20022;-78
2023/07/15 07:37:46;;;;;;;;;;;;;;;-140.72;0.00;52386.81;5100694;28;20267;-78
2023/07/15 07:40:12;;;;;;;;;;;;;;;-140.72;0.00;52330.00;5079709;28;19927;-78
2023/07/15 07:42:37;;;;;;;;;;;;;;;-140.72;0.00;52301.59;5088034;28;20002;-77
2023/07/15 07:45:12;;;;;;;;;;;;;;;-140.72;0.00;52356.38;5075105;28;20042;-77
2023/07/15 07:47:38;;;;;;;;;;;;;;;-140.72;0.00;52313.75;5068559;28;20393;-78
2023/07/15 07:50:03;;;;;;;;;;;;;;;-140.72;0.00;52352.31;5083189;28;19921;-78
2023/07/15 07:52:28;;;;;;;;;;;;;;;-140.72;0.00;52311.72;5065828;28;20085;-78
2023/07/15 07:54:54;;;;;;;;;;;;;;;-140.72;0.00;52321.88;5079736;28;20281;-78
2023/07/15 07:57:19;;;;;;;;;;;;;;;-140.72;0.00;52309.69;5087706;28;20002;-78
2023/07/15 07:59:44;;;;;;;;;;;;;;;-140.72;0.00;52299.56;5084974;28;19953;-77
2023/07/15 08:02:10;;;;;;;;;;;;;;;-140.72;0.00;52258.97;5092401;28;19996;-78
2023/07/15 08:04:35;;;;;;;;;;;;;;;-140.72;0.00;52287.38;5094262;28;19916;-77
2023/07/15 08:07:00;;;;;;;;;;;;;;;-140.72;0.00;52291.44;5065679;28;20289;-78
2023/07/15 08:09:26;;;;;;;;;;;;;;;-140.72;0.00;52291.44;5080667;28;19920;-81
2023/07/15 08:11:51;;;;;;;;;;;;;;;-140.72;0.00;52309.69;5091603;28;19922;-79
2023/07/15 08:14:17;;;;;;;;;;;;;;;-140.72;0.00;52285.34;5079526;28;19927;-81
2023/07/15 08:16:43;;;;;;;;;;;;;;;-140.72;0.00;52315.78;5080900;28;19939;-82
2023/07/15 08:19:08;;;;;;;;;;;;;;;-140.72;0.00;52307.66;5076627;28;19935;-81
2023/07/15 08:21:33;;;;;;;;;;;;;;;-140.72;0.00;52250.84;5075936;28;20000;-84
2023/07/15 08:23:59;;;;;;;;;;;;;;;-140.72;0.00;52313.75;5083235;28;19920;-79
2023/07/15 08:26:24;;;;;;;;;;;;;;;-140.72;0.00;52321.88;5083772;28;20366;-78
2023/07/15 08:28:50;;;;;;;;;;;;;;;-140.72;0.00;52327.97;5081451;28;19942;-79
2023/07/15 08:31:16;;;;;;;;;;;;;;;-140.72;0.00;52295.50;5072299;28;20338;-79
2023/07/15 08:33:41;;;;;;;;;;;;;;;-140.72;0.00;52269.13;5058608;28;19920;-72
2023/07/15 08:36:06;;;;;;;;;;;;;;;-140.72;0.00;52309.69;5092022;28;20339;-82
2023/07/15 08:38:32;;;;;;;;;;;;;;;-140.72;0.00;52281.28;5088230;28;19984;-82
2023/07/15 08:41:01;;;;;;;;;;;;;;;-140.72;0.00;52323.91;5110446;27;19916;-80
2023/07/15 08:43:31;;;;;;;;;;;;;;;-140.72;0.00;52305.63;5090470;28;19920;-80
2023/07/15 08:45:58;;;;;;;;;;;;;;;-140.72;0.00;52287.38;5088140;28;19920;-79
2023/07/15 08:48:23;;;;;;;;;;;;;;;-140.72;0.00;52273.19;5087445;28;19976;-82
2023/07/15 08:50:49;;;;;;;;;;;;;;;-140.72;0.00;52295.50;5073421;28;19962;-72
2023/07/15 08:53:21;;;;;;;;;;;;;;;-140.72;0.00;52273.19;5081506;28;19916;-74
2023/07/15 08:55:48;;;;;;;;;;;;;;;-140.72;0.00;52277.22;5073798;28;19916;-75
2023/07/15 08:58:13;;;;;;;;;;;;;;;-140.72;0.00;52273.19;5085588;28;19916;-75
2023/07/15 09:00:38;;;;;;;;;;;;;;;-140.72;0.00;52277.22;5084989;28;19920;-82
2023/07/15 09:03:05;;;;;;;;;;;;;;;-140.72;0.00;52244.78;5072529;28;19920;-79
2023/07/15 09:05:30;;;;;;;;;;;;;;;-140.72;0.00;52285.34;5104309;28;19916;-77
2023/07/15 09:07:57;;;;;;;;;;;;;;;-140.72;0.00;52281.28;5093169;28;19920;-77
2023/07/15 09:10:22;;;;;;;;;;;;;;;-140.72;0.00;52307.66;5090038;28;19916;-76
2023/07/15 09:12:51;;;;;;;;;;;;;;;-140.72;0.00;52248.81;5083047;28;19985;-73
2023/07/15 09:15:17;;;;;;;;;;;;;;;-140.72;0.00;52285.34;5095841;28;19921;-77
2023/07/15 09:17:50;;;;;;;;;;;;;;;-140.72;0.00;52250.84;5092679;28;20006;-76
2023/07/15 09:20:16;;;;;;;;;;;;;;;-140.72;0.00;52277.22;5086847;28;19920;-75
2023/07/15 09:22:42;;;;;;;;;;;;;;;-140.72;0.00;52263.03;5084708;28;19920;-76
2023/07/15 09:25:09;;;;;;;;;;;;;;;-140.72;0.00;52277.22;5078616;28;20246;-75
2023/07/15 09:27:39;;;;;;;;;;;;;;;-140.72;0.00;52240.72;5082456;28;20290;-75
2023/07/15 09:30:06;;;;;;;;;;;;;;;-140.72;0.00;52275.19;5074789;28;20347;-75
2023/07/15 09:32:31;;;;;;;;;;;;;;;-140.72;0.00;52281.28;5063005;28;19924;-74
2023/07/15 09:34:57;;;;;;;;;;;;;;;-140.72;0.00;52281.28;5078762;28;19923;-75
2023/07/15 09:37:29;;;;;;;;;;;;;;;-140.72;0.00;52334.03;5087928;28;19916;-75
2023/07/15 09:40:07;;;;;;;;;;;;;;;-140.72;0.00;52252.88;5059178;28;19932;-76
2023/07/15 09:42:51;;;;;;;;;;;;;;;-140.72;0.00;52226.50;5082553;28;19928;-76
2023/07/15 09:45:35;;;;;;;;;;;;;;;-140.72;0.00;52244.78;5074764;28;20258;-75
2023/07/15 09:48:02;;;;;;;;;;;;;;;-140.72;0.00;52244.78;5080101;28;19935;-74
2023/07/15 09:50:28;;;;;;;;;;;;;;;-140.72;0.00;52240.72;5090145;28;20358;-74
2023/07/15 09:52:54;;;;;;;;;;;;;;;-140.72;0.00;52214.34;5087737;28;20007;-71
2023/07/15 09:55:20;;;;;;;;;;;;;;;-140.72;0.00;52256.94;5092702;28;19943;-74
2023/07/15 09:57:48;;;;;;;;;;;;;;;-140.72;0.00;52204.19;5089814;28;19920;-74
2023/07/15 10:00:15;;;;;;;;;;;;;;;-140.72;0.00;52224.47;5103109;28;19926;-74
2023/07/15 10:02:41;;;;;;;;;;;;;;;-140.72;0.00;52200.13;5095556;28;19955;-73
2023/07/15 10:05:13;;;;;;;;;;;;;;;-140.72;0.00;52214.34;5086167;28;19916;-73
2023/07/15 10:07:39;;;;;;;;;;;;;;;-140.72;0.00;52204.19;5089322;28;20010;-72
2023/07/15 10:10:05;;;;;;;;;;;;;;;-140.72;0.00;52269.13;5084310;28;19956;-72
2023/07/15 10:12:30;;;;;;;;;;;;;;;-140.72;0.00;52254.91;5072533;28;19928;-73
2023/07/15 10:14:56;;;;;;;;;;;;;;;-140.72;0.00;52263.03;5091274;28;19917;-74
2023/07/15 10:17:21;;;;;;;;;;;;;;;-140.72;0.00;52267.09;5088860;28;19916;-74
2023/07/15 10:19:47;;;;;;;;;;;;;;;-140.72;0.00;52261.00;5107972;28;19927;-77
2023/07/15 10:22:13;;;;;;;;;;;;;;;-140.72;0.00;52216.34;5096508;28;19971;-76
2023/07/15 10:24:42;;;;;;;;;;;;;;;-140.72;0.00;52218.38;5074639;28;20018;-76
2023/07/15 10:27:10;;;;;;;;;;;;;;;-140.72;0.00;52206.22;5086867;28;19989;-75
2023/07/15 10:29:39;;;;;;;;;;;;;;;-140.72;0.00;52220.41;5075870;28;19927;-75
2023/07/15 10:32:11;;;;;;;;;;;;;;;-140.72;0.00;52248.81;5063550;28;19947;-73
2023/07/15 10:34:41;;;;;;;;;;;;;;;-140.72;0.00;52240.72;5073663;28;20353;-75
2023/07/15 10:37:07;;;;;;;;;;;;;;;-140.72;0.00;52153.47;5119803;27;19987;-74
2023/07/15 10:39:34;;;;;;;;;;;;;;;-140.72;0.00;52118.97;5078809;28;19916;-71
2023/07/15 10:42:06;;;;;;;;;;;;;;;-140.72;0.00;52074.34;5114482;28;20288;-75
2023/07/15 10:44:38;;;;;;;;;;;;;;;-140.72;0.00;52076.34;5063762;28;19926;-73
2023/07/15 10:47:03;;;;;;;;;;;;;;;-140.72;0.00;52070.28;5091913;28;19920;-73
2023/07/15 10:49:32;;;;;;;;;;;;;;;-140.72;0.00;51997.22;5091535;28;19930;-74
2023/07/15 10:51:58;;;;;;;;;;;;;;;-140.72;0.00;51999.25;5094631;28;20369;-73
2023/07/15 10:54:24;;;;;;;;;;;;;;;-140.72;0.00;51912.03;5073875;28;19920;-72
2023/07/15 10:56:49;;;;;;;;;;;;;;;-140.72;0.00;51952.59;5075716;28;19943;-71
2023/07/15 10:59:14;;;;;;;;;;;;;;;-140.72;0.00;52029.69;5093189;28;19924;-72
2023/07/15 11:01:40;;;;;;;;;;;;;;;-140.72;0.00;52043.91;5115249;28;19967;-79
2023/07/15 11:04:08;;;;;;;;;;;;;;;-140.72;0.00;51972.88;5096937;28;20018;-71
2023/07/15 11:06:34;;;;;;;;;;;;;;;-140.72;0.00;52017.53;5095042;28;19916;-71
2023/07/15 11:09:20;;;;;;;;;;;;;;;-140.72;0.00;52029.69;5090547;28;19936;-72
2023/07/15 11:11:46;;;;;;;;;;;;;;;-140.72;0.00;51964.78;5082581;28;19917;-71
2023/07/15 11:14:22;;;;;;;;;;;;;;;-140.72;0.00;51897.81;5084269;28;19950;-71
2023/07/15 11:16:54;;;;;;;;;;;;;;;-140.72;0.00;51960.72;5082394;28;20073;-71
2023/07/15 11:19:20;;;;;;;;;;;;;;;-140.72;0.00;51989.13;5087778;28;20414;-71
2023/07/15 11:21:46;;;;;;;;;;;;;;;-140.72;0.00;51934.34;5087457;28;20078;-71
2023/07/15 11:24:12;;;;;;;;;;;;;;;-140.72;0.00;51950.56;5070385;28;19964;-71
2023/07/15 11:26:38;;;;;;;;;;;;;;;-140.72;0.00;51847.09;5094575;28;19920;-71
2023/07/15 11:29:16;;;;;;;;;;;;;;;-140.72;0.00;52005.34;5101203;28;19928;-73
2023/07/15 11:31:42;;;;;;;;;;;;;;;-140.72;0.00;51887.66;5080369;28;19985;-70
2023/07/15 11:34:09;;;;;;;;;;;;;;;-140.72;0.00;51912.03;5089875;28;20049;-70
2023/07/15 11:36:34;;;;;;;;;;;;;;;-140.72;0.00;52009.41;5089389;28;20406;-70
2023/07/15 11:39:00;;;;;;;;;;;;;;;-140.72;0.00;52078.38;5091481;28;20019;-70
2023/07/15 11:41:26;;;;;;;;;;;;;;;-140.72;0.00;52076.34;5090672;28;20427;-70
2023/07/15 11:43:51;;;;;;;;;;;;;;;-140.72;0.00;51956.66;5073843;28;20002;-70
2023/07/15 11:46:17;;;;;;;;;;;;;;;-140.72;0.00;51942.44;5074398;28;19926;-73
2023/07/15 11:48:42;;;;;;;;;;;;;;;-140.72;0.00;51932.31;5067268;28;19920;-71
2023/07/15 11:51:09;;;;;;;;;;;;;;;-140.72;0.00;51889.69;5094926;28;20503;-71
2023/07/15 11:53:36;;;;;;;;;;;;;;;-140.72;0.00;51905.94;5079844;28;19917;-72
2023/07/15 11:56:02;;;;;;;;;;;;;;;-140.72;0.00;51810.56;5087534;28;19920;-71
2023/07/15 11:58:46;;;;;;;;;;;;;;;-140.72;0.00;51879.56;5081724;28;19916;-71
2023/07/15 12:01:31;;;;;;;;;;;;;;;-140.72;0.00;51930.28;5084526;28;19924;-70
2023/07/15 12:03:57;;;;;;;;;;;;;;;-140.72;0.00;51972.88;5080979;28;20370;-71
2023/07/15 12:06:23;;;;;;;;;;;;;;;-140.72;0.00;51972.88;5091289;28;20076;-70
2023/07/15 12:09:01;;;;;;;;;;;;;;;-140.72;0.00;51934.34;5090136;28;19969;-73
2023/07/15 12:11:27;;;;;;;;;;;;;;;-140.72;0.00;51924.19;5080088;28;20350;-70
2023/07/15 12:13:52;;;;;;;;;;;;;;;-140.72;0.00;51940.41;5101002;28;19917;-72
2023/07/15 12:16:17;;;;;;;;;;;;;;;-140.72;0.00;51932.31;5088153;28;20118;-70
2023/07/15 12:18:43;;;;;;;;;;;;;;;-140.72;0.00;51879.56;5091031;28;20018;-74
2023/07/15 12:21:08;;;;;;;;;;;;;;;-140.72;0.00;51877.53;5091251;28;19999;-74
2023/07/15 12:23:33;;;;;;;;;;;;;;;-140.72;0.00;51849.13;5092805;28;19967;-70